Terminal Aerodrome Forecast
Issued by NWS

Home | Current Version | Previous Version | Text Only | Print | Product List | Glossary On
Versions: 1 2 3 4 5 6 7 8 9 10 11 12 13 14 15 16 17 18 19 20 21 22 23
000
FTUS41 KOKX 241700
TAFHPN
TAF
KHPN 241721Z 2418/2518 32023G30KT P6SM SKC
     FM242200 33018G26KT P6SM SKC
     FM250000 32013KT P6SM SKC
     FM250600 34007KT P6SM SKC
     FM251500 15005KT P6SM SCT250
      AMD NOT SKED=

USA.gov is the U.S. government's official web portal to all federal, state and local government web resources and services.